sensor_id;sensor_type;location;lat;lon;timestamp;pressure;altitude;pressure_sealevel;temperature;humidity
82931;BME280;72705;53.346;10.248;2023-10-31T00:00:13;99498.88;;;10.60;100.00
82931;BME280;72705;53.346;10.248;2023-10-31T00:02:38;99494.69;;;10.58;100.00
82931;BME280;72705;53.346;10.248;2023-10-31T00:05:04;99493.53;;;10.67;100.00
82931;BME280;72705;53.346;10.248;2023-10-31T00:07:31;99487.75;;;10.70;100.00
82931;BME280;72705;53.346;10.248;2023-10-31T00:09:56;99481.47;;;10.63;100.00
82931;BME280;72705;53.346;10.248;2023-10-31T00:12:21;99485.41;;;10.60;100.00
82931;BME280;72705;53.346;10.248;2023-10-31T00:14:47;99480.44;;;10.64;100.00
82931;BME280;72705;53.346;10.248;2023-10-31T00:17:12;99486.06;;;10.69;100.00
82931;BME280;72705;53.346;10.248;2023-10-31T00:19:37;99483.13;;;10.64;100.00
82931;BME280;72705;53.346;10.248;2023-10-31T00:22:05;99476.97;;;10.70;100.00
82931;BME280;72705;53.346;10.248;2023-10-31T00:24:30;99480.31;;;10.72;100.00
82931;BME280;72705;53.346;10.248;2023-10-31T00:26:57;99474.91;;;10.72;100.00
82931;BME280;72705;53.346;10.248;2023-10-31T00:29:23;99472.59;;;10.69;100.00
82931;BME280;72705;53.346;10.248;2023-10-31T00:31:48;99473.63;;;10.68;100.00
82931;BME280;72705;53.346;10.248;2023-10-31T00:34:14;99471.97;;;10.67;100.00
82931;BME280;72705;53.346;10.248;2023-10-31T00:36:40;99463.03;;;10.66;100.00
82931;BME280;72705;53.346;10.248;2023-10-31T00:39:05;99456.34;;;10.62;100.00
82931;BME280;72705;53.346;10.248;2023-10-31T00:41:31;99468.22;;;10.68;100.00
82931;BME280;72705;53.346;10.248;2023-10-31T00:43:56;99462.84;;;10.68;100.00
82931;BME280;72705;53.346;10.248;2023-10-31T00:46:21;99453.72;;;10.69;100.00
82931;BME280;72705;53.346;10.248;2023-10-31T00:48:47;99456.16;;;10.64;100.00
82931;BME280;72705;53.346;10.248;2023-10-31T00:51:13;99462.66;;;10.69;100.00
82931;BME280;72705;53.346;10.248;2023-10-31T00:53:38;99449.81;;;10.71;100.00
82931;BME280;72705;53.346;10.248;2023-10-31T00:56:04;99452.50;;;10.71;100.00
82931;BME280;72705;53.346;10.248;2023-10-31T00:58:29;99445.00;;;10.67;100.00
82931;BME280;72705;53.346;10.248;2023-10-31T01:00:55;99444.19;;;10.66;100.00
82931;BME280;72705;53.346;10.248;2023-10-31T01:03:20;99441.66;;;10.65;100.00
82931;BME280;72705;53.346;10.248;2023-10-31T01:05:45;99441.66;;;10.65;100.00
82931;BME280;72705;53.346;10.248;2023-10-31T01:08:11;99430.88;;;10.65;100.00
82931;BME280;72705;53.346;10.248;2023-10-31T01:10:37;99421.06;;;10.57;100.00
82931;BME280;72705;53.346;10.248;2023-10-31T01:13:03;99433.75;;;10.63;100.00
82931;BME280;72705;53.346;10.248;2023-10-31T01:15:28;99437.28;;;10.64;100.00
82931;BME280;72705;53.346;10.248;2023-10-31T01:17:55;99441.66;;;10.65;100.00
82931;BME280;72705;53.346;10.248;2023-10-31T01:20:20;99432.94;;;10.63;100.00
82931;BME280;72705;53.346;10.248;2023-10-31T01:22:45;99435.06;;;10.67;100.00
82931;BME280;72705;53.346;10.248;2023-10-31T01:25:11;99430.69;;;10.66;100.00
82931;BME280;72705;53.346;10.248;2023-10-31T01:27:36;99432.16;;;10.69;100.00
82931;BME280;72705;53.346;10.248;2023-10-31T01:30:02;99432.97;;;10.69;100.00
82931;BME280;72705;53.346;10.248;2023-10-31T01:32:27;99425.09;;;10.68;100.00
82931;BME280;72705;53.346;10.248;2023-10-31T01:34:52;99420.94;;;10.65;100.00
82931;BME280;72705;53.346;10.248;2023-10-31T01:37:19;99421.97;;;10.64;100.00
82931;BME280;72705;53.346;10.248;2023-10-31T01:39:45;99421.38;;;10.69;100.00
82931;BME280;72705;53.346;10.248;2023-10-31T01:42:13;99408.44;;;10.58;100.00
82931;BME280;72705;53.346;10.248;2023-10-31T01:44:39;99426.75;;;10.69;100.00
82931;BME280;72705;53.346;10.248;2023-10-31T01:47:05;99428.84;;;10.67;100.00
82931;BME280;72705;53.346;10.248;2023-10-31T01:49:30;99414.28;;;10.68;100.00
82931;BME280;72705;53.346;10.248;2023-10-31T01:51:55;99398.91;;;10.62;100.00
82931;BME280;72705;53.346;10.248;2023-10-31T01:54:21;99401.59;;;10.62;100.00
82931;BME280;72705;53.346;10.248;2023-10-31T01:56:46;99393.56;;;10.68;100.00
82931;BME280;72705;53.346;10.248;2023-10-31T01:59:15;99393.78;;;10.67;100.00
82931;BME280;72705;53.346;10.248;2023-10-31T02:01:41;99401.88;;;10.67;100.00
82931;BME280;72705;53.346;10.248;2023-10-31T02:04:07;99389.41;;;10.66;100.00
82931;BME280;72705;53.346;10.248;2023-10-31T02:06:32;99387.78;;;10.71;100.00
82931;BME280;72705;53.346;10.248;2023-10-31T02:08:58;99377.84;;;10.72;100.00
82931;BME280;72705;53.346;10.248;2023-10-31T02:11:23;99380.91;;;10.69;100.00
82931;BME280;72705;53.346;10.248;2023-10-31T02:13:48;99369.94;;;10.70;100.00
82931;BME280;72705;53.346;10.248;2023-10-31T02:16:14;99368.78;;;10.79;100.00
82931;BME280;72705;53.346;10.248;2023-10-31T02:18:39;99355.06;;;10.81;100.00
82931;BME280;72705;53.346;10.248;2023-10-31T02:21:05;99355.84;;;10.75;100.00
82931;BME280;72705;53.346;10.248;2023-10-31T02:23:30;99350.47;;;10.75;100.00
82931;BME280;72705;53.346;10.248;2023-10-31T02:25:56;99350.69;;;10.73;100.00
82931;BME280;72705;53.346;10.248;2023-10-31T02:28:22;99342.38;;;10.75;100.00
82931;BME280;72705;53.346;10.248;2023-10-31T02:30:47;99335.09;;;10.69;100.00
82931;BME280;72705;53.346;10.248;2023-10-31T02:33:13;99341.75;;;10.73;100.00
82931;BME280;72705;53.346;10.248;2023-10-31T02:35:38;99345.91;;;10.75;100.00
82931;BME280;72705;53.346;10.248;2023-10-31T02:38:03;99337.22;;;10.73;100.00
82931;BME280;72705;53.346;10.248;2023-10-31T02:40:29;99339.28;;;10.78;100.00
82931;BME280;72705;53.346;10.248;2023-10-31T02:42:54;99341.81;;;10.79;100.00
82931;BME280;72705;53.346;10.248;2023-10-31T02:45:19;99329.31;;;10.72;100.00
82931;BME280;72705;53.346;10.248;2023-10-31T02:47:45;99334.97;;;10.83;100.00
82931;BME280;72705;53.346;10.248;2023-10-31T02:50:10;99324.78;;;10.79;100.00
82931;BME280;72705;53.346;10.248;2023-10-31T02:52:35;99330.19;;;10.79;100.00
82931;BME280;72705;53.346;10.248;2023-10-31T02:55:01;99326.03;;;10.83;100.00
82931;BME280;72705;53.346;10.248;2023-10-31T02:57:27;99322.31;;;10.84;100.00
82931;BME280;72705;53.346;10.248;2023-10-31T02:59:52;99318.81;;;10.90;100.00
82931;BME280;72705;53.346;10.248;2023-10-31T03:02:18;99318.59;;;10.85;100.00
82931;BME280;72705;53.346;10.248;2023-10-31T03:04:43;99321.06;;;10.86;100.00
82931;BME280;72705;53.346;10.248;2023-10-31T03:07:08;99329.63;;;10.90;100.00
82931;BME280;72705;53.346;10.248;2023-10-31T03:09:34;99320.72;;;10.96;100.00
82931;BME280;72705;53.346;10.248;2023-10-31T03:11:59;99314.72;;;11.01;100.00
82931;BME280;72705;53.346;10.248;2023-10-31T03:14:25;99316.56;;;11.00;100.00
82931;BME280;72705;53.346;10.248;2023-10-31T03:16:50;99311.97;;;10.94;100.00
82931;BME280;72705;53.346;10.248;2023-10-31T03:19:16;99305.56;;;10.95;100.00
82931;BME280;72705;53.346;10.248;2023-10-31T03:21:42;99291.44;;;10.93;100.00
82931;BME280;72705;53.346;10.248;2023-10-31T03:24:07;99297.09;;;10.98;100.00
82931;BME280;72705;53.346;10.248;2023-10-31T03:26:33;99285.00;;;10.94;100.00
82931;BME280;72705;53.346;10.248;2023-10-31T03:28:58;99290.03;;;10.97;100.00
82931;BME280;72705;53.346;10.248;2023-10-31T03:31:24;99286.50;;;11.03;100.00
82931;BME280;72705;53.346;10.248;2023-10-31T03:33:50;99286.75;;;11.08;100.00
82931;BME280;72705;53.346;10.248;2023-10-31T03:36:17;99280.09;;;11.04;100.00
82931;BME280;72705;53.346;10.248;2023-10-31T03:38:42;99281.72;;;11.05;100.00
82931;BME280;72705;53.346;10.248;2023-10-31T03:41:08;99290.69;;;11.12;100.00
82931;BME280;72705;53.346;10.248;2023-10-31T03:43:33;99279.66;;;11.07;100.00
82931;BME280;72705;53.346;10.248;2023-10-31T03:46:00;99278.44;;;11.10;100.00
82931;BME280;72705;53.346;10.248;2023-10-31T03:48:25;99278.22;;;11.11;100.00
82931;BME280;72705;53.346;10.248;2023-10-31T03:50:51;99283.88;;;11.16;100.00
82931;BME280;72705;53.346;10.248;2023-10-31T03:53:16;99283.44;;;11.19;100.00
82931;BME280;72705;53.346;10.248;2023-10-31T03:55:42;99274.72;;;11.17;100.00
82931;BME280;72705;53.346;10.248;2023-10-31T03:58:07;99287.81;;;11.20;100.00
82931;BME280;72705;53.346;10.248;2023-10-31T04:00:32;99279.09;;;11.18;100.00
82931;BME280;72705;53.346;10.248;2023-10-31T04:02:58;99286.97;;;11.20;100.00
82931;BME280;72705;53.346;10.248;2023-10-31T04:05:23;99284.72;;;11.30;100.00
82931;BME280;72705;53.346;10.248;2023-10-31T04:07:49;99284.31;;;11.26;100.00
82931;BME280;72705;53.346;10.248;2023-10-31T04:10:16;99283.47;;;11.26;100.00
82931;BME280;72705;53.346;10.248;2023-10-31T04:12:42;99268.94;;;11.20;100.00
82931;BME280;72705;53.346;10.248;2023-10-31T04:15:08;99281.00;;;11.31;100.00
82931;BME280;72705;53.346;10.248;2023-10-31T04:17:34;99282.25;;;11.28;100.00
82931;BME280;72705;53.346;10.248;2023-10-31T04:20:00;99272.47;;;11.27;100.00
82931;BME280;72705;53.346;10.248;2023-10-31T04:22:28;99279.75;;;11.33;100.00
82931;BME280;72705;53.346;10.248;2023-10-31T04:24:54;99279.97;;;11.32;100.00
82931;BME280;72705;53.346;10.248;2023-10-31T04:27:19;99283.28;;;11.34;100.00
82931;BME280;72705;53.346;10.248;2023-10-31T04:29:45;99271.66;;;11.33;100.00
82931;BME280;72705;53.346;10.248;2023-10-31T04:32:10;99271.88;;;11.39;100.00
82931;BME280;72705;53.346;10.248;2023-10-31T04:34:36;99247.16;;;11.22;100.00
82931;BME280;72705;53.346;10.248;2023-10-31T04:37:01;99258.16;;;11.33;100.00
82931;BME280;72705;53.346;10.248;2023-10-31T04:39:28;99266.47;;;11.39;100.00
82931;BME280;72705;53.346;10.248;2023-10-31T04:41:55;99261.91;;;11.39;100.00
82931;BME280;72705;53.346;10.248;2023-10-31T04:44:20;99263.16;;;11.36;100.00
82931;BME280;72705;53.346;10.248;2023-10-31T04:46:46;99268.13;;;11.33;100.00
82931;BME280;72705;53.346;10.248;2023-10-31T04:49:12;99260.44;;;11.36;100.00
82931;BME280;72705;53.346;10.248;2023-10-31T04:51:38;99259.84;;;11.34;100.00
82931;BME280;72705;53.346;10.248;2023-10-31T04:54:04;99239.91;;;11.35;100.00
82931;BME280;72705;53.346;10.248;2023-10-31T04:56:29;99236.16;;;11.36;100.00
82931;BME280;72705;53.346;10.248;2023-10-31T04:58:55;99242.00;;;11.40;100.00
82931;BME280;72705;53.346;10.248;2023-10-31T05:01:22;99242.63;;;11.35;100.00
82931;BME280;72705;53.346;10.248;2023-10-31T05:03:47;99236.56;;;11.33;100.00
82931;BME280;72705;53.346;10.248;2023-10-31T05:06:13;99239.50;;;11.39;100.00
82931;BME280;72705;53.346;10.248;2023-10-31T05:08:38;99237.19;;;11.42;100.00
82931;BME280;72705;53.346;10.248;2023-10-31T05:11:04;99255.28;;;11.48;100.00
82931;BME280;72705;53.346;10.248;2023-10-31T05:13:29;99234.50;;;11.42;100.00
82931;BME280;72705;53.346;10.248;2023-10-31T05:15:54;99244.50;;;11.42;100.00
82931;BME280;72705;53.346;10.248;2023-10-31T05:18:20;99245.53;;;11.41;100.00
82931;BME280;72705;53.346;10.248;2023-10-31T05:20:45;99240.31;;;11.39;100.00
82931;BME280;72705;53.346;10.248;2023-10-31T05:23:11;99254.22;;;11.43;100.00
82931;BME280;72705;53.346;10.248;2023-10-31T05:25:37;99250.31;;;11.45;100.00
82931;BME280;72705;53.346;10.248;2023-10-31T05:28:03;99252.19;;;11.51;100.00
82931;BME280;72705;53.346;10.248;2023-10-31T05:30:28;99243.44;;;11.43;100.00
82931;BME280;72705;53.346;10.248;2023-10-31T05:32:54;99242.00;;;11.47;100.00
82931;BME280;72705;53.346;10.248;2023-10-31T05:35:19;99233.06;;;11.40;100.00
82931;BME280;72705;53.346;10.248;2023-10-31T05:37:45;99236.78;;;11.39;100.00
82931;BME280;72705;53.346;10.248;2023-10-31T05:40:11;99226.63;;;11.34;100.00
82931;BME280;72705;53.346;10.248;2023-10-31T05:42:38;99232.03;;;11.41;100.00
82931;BME280;72705;53.346;10.248;2023-10-31T05:45:03;99230.75;;;11.36;100.00
82931;BME280;72705;53.346;10.248;2023-10-31T05:47:29;99243.22;;;11.44;100.00
82931;BME280;72705;53.346;10.248;2023-10-31T05:49:54;99222.06;;;11.34;100.00
82931;BME280;72705;53.346;10.248;2023-10-31T05:52:20;99235.75;;;11.40;100.00
82931;BME280;72705;53.346;10.248;2023-10-31T05:54:45;99234.09;;;11.45;100.00
82931;BME280;72705;53.346;10.248;2023-10-31T05:57:12;99227.66;;;11.40;100.00
82931;BME280;72705;53.346;10.248;2023-10-31T05:59:37;99234.94;;;11.46;100.00
82931;BME280;72705;53.346;10.248;2023-10-31T06:02:02;99232.44;;;11.44;100.00
82931;BME280;72705;53.346;10.248;2023-10-31T06:04:28;99230.38;;;11.40;100.00
82931;BME280;72705;53.346;10.248;2023-10-31T06:06:53;99238.66;;;11.45;100.00
82931;BME280;72705;53.346;10.248;2023-10-31T06:09:18;99233.28;;;11.45;100.00
82931;BME280;72705;53.346;10.248;2023-10-31T06:11:44;99248.25;;;11.54;100.00
82931;BME280;72705;53.346;10.248;2023-10-31T06:14:10;99241.78;;;11.48;100.00
82931;BME280;72705;53.346;10.248;2023-10-31T06:16:43;99239.50;;;11.52;100.00
82931;BME280;72705;53.346;10.248;2023-10-31T06:19:09;99248.25;;;11.47;100.00
82931;BME280;72705;53.346;10.248;2023-10-31T06:21:34;99254.25;;;11.56;100.00
82931;BME280;72705;53.346;10.248;2023-10-31T06:24:00;99247.81;;;11.57;100.00
82931;BME280;72705;53.346;10.248;2023-10-31T06:26:26;99251.16;;;11.59;100.00
82931;BME280;72705;53.346;10.248;2023-10-31T06:28:52;99245.75;;;11.65;100.00
82931;BME280;72705;53.346;10.248;2023-10-31T06:31:17;99250.94;;;11.54;100.00
82931;BME280;72705;53.346;10.248;2023-10-31T06:33:42;99250.72;;;11.55;99.43
82931;BME280;72705;53.346;10.248;2023-10-31T06:36:08;99260.47;;;11.50;99.54
82931;BME280;72705;53.346;10.248;2023-10-31T06:38:33;99259.63;;;11.43;99.92
82931;BME280;72705;53.346;10.248;2023-10-31T06:41:01;99266.47;;;11.39;100.00
82931;BME280;72705;53.346;10.248;2023-10-31T06:43:26;99263.16;;;11.36;99.88
82931;BME280;72705;53.346;10.248;2023-10-31T06:45:53;99270.84;;;11.33;99.58
82931;BME280;72705;53.346;10.248;2023-10-31T06:48:18;99268.72;;;11.22;100.00
82931;BME280;72705;53.346;10.248;2023-10-31T06:50:43;99276.38;;;11.18;100.00
82931;BME280;72705;53.346;10.248;2023-10-31T06:53:09;99267.06;;;11.21;99.39
82931;BME280;72705;53.346;10.248;2023-10-31T06:55:34;99263.91;;;11.17;98.88
82931;BME280;72705;53.346;10.248;2023-10-31T06:57:59;99266.41;;;11.12;99.74
82931;BME280;72705;53.346;10.248;2023-10-31T07:00:24;99283.63;;;11.11;99.15
82931;BME280;72705;53.346;10.248;2023-10-31T07:02:50;99293.81;;;11.09;99.20
82931;BME280;72705;53.346;10.248;2023-10-31T07:05:15;99287.75;;;11.07;99.69
82931;BME280;72705;53.346;10.248;2023-10-31T07:07:41;99285.50;;;11.04;99.38
82931;BME280;72705;53.346;10.248;2023-10-31T07:10:07;99281.69;;;10.99;98.86
82931;BME280;72705;53.346;10.248;2023-10-31T07:12:33;99287.75;;;11.01;98.45
82931;BME280;72705;53.346;10.248;2023-10-31T07:14:58;99288.13;;;10.91;98.47
82931;BME280;72705;53.346;10.248;2023-10-31T07:17:24;99285.59;;;10.83;98.81
82931;BME280;72705;53.346;10.248;2023-10-31T07:19:50;99295.38;;;10.90;98.30
82931;BME280;72705;53.346;10.248;2023-10-31T07:22:15;99301.13;;;10.81;99.17
82931;BME280;72705;53.346;10.248;2023-10-31T07:24:41;99297.78;;;10.72;99.59
82931;BME280;72705;53.346;10.248;2023-10-31T07:27:06;99300.88;;;10.69;99.44
82931;BME280;72705;53.346;10.248;2023-10-31T07:29:31;99311.47;;;10.71;99.07
82931;BME280;72705;53.346;10.248;2023-10-31T07:31:57;99307.53;;;10.73;99.42
82931;BME280;72705;53.346;10.248;2023-10-31T07:34:24;99317.72;;;10.78;99.33
82931;BME280;72705;53.346;10.248;2023-10-31T07:36:49;99310.00;;;10.75;98.95
82931;BME280;72705;53.346;10.248;2023-10-31T07:39:14;99305.69;;;10.74;98.46
82931;BME280;72705;53.346;10.248;2023-10-31T07:41:40;99303.59;;;10.76;97.53
82931;BME280;72705;53.346;10.248;2023-10-31T07:44:06;99310.28;;;10.80;96.87
82931;BME280;72705;53.346;10.248;2023-10-31T07:46:31;99321.06;;;10.80;97.40
82931;BME280;72705;53.346;10.248;2023-10-31T07:48:57;99321.47;;;10.83;96.53
82931;BME280;72705;53.346;10.248;2023-10-31T07:51:22;99328.50;;;10.78;95.30
82931;BME280;72705;53.346;10.248;2023-10-31T07:53:49;99319.53;;;10.71;95.20
82931;BME280;72705;53.346;10.248;2023-10-31T07:56:15;99316.16;;;10.62;95.55
82931;BME280;72705;53.346;10.248;2023-10-31T07:58:41;99320.16;;;10.66;96.20
82931;BME280;72705;53.346;10.248;2023-10-31T08:01:06;99318.47;;;10.65;95.38
82931;BME280;72705;53.346;10.248;2023-10-31T08:03:36;99317.84;;;10.63;95.76
82931;BME280;72705;53.346;10.248;2023-10-31T08:06:01;99317.78;;;10.57;95.98
82931;BME280;72705;53.346;10.248;2023-10-31T08:08:27;99318.66;;;10.64;95.32
82931;BME280;72705;53.346;10.248;2023-10-31T08:10:52;99323.81;;;10.59;95.45
82931;BME280;72705;53.346;10.248;2023-10-31T08:13:19;99318.81;;;10.55;95.99
82931;BME280;72705;53.346;10.248;2023-10-31T08:15:44;99327.31;;;10.52;95.24
82931;BME280;72705;53.346;10.248;2023-10-31T08:18:09;99327.50;;;10.51;95.35
82931;BME280;72705;53.346;10.248;2023-10-31T08:20:35;99326.28;;;10.53;95.66
82931;BME280;72705;53.346;10.248;2023-10-31T08:23:00;99315.50;;;10.53;93.94
82931;BME280;72705;53.346;10.248;2023-10-31T08:25:26;99327.75;;;10.56;94.33
82931;BME280;72705;53.346;10.248;2023-10-31T08:27:52;99315.50;;;10.53;94.61
82931;BME280;72705;53.346;10.248;2023-10-31T08:30:18;99305.56;;;10.54;93.92
82931;BME280;72705;53.346;10.248;2023-10-31T08:32:44;99318.81;;;10.49;94.76
82931;BME280;72705;53.346;10.248;2023-10-31T08:35:10;99310.44;;;10.44;94.57
82931;BME280;72705;53.346;10.248;2023-10-31T08:37:35;99314.78;;;10.38;94.90
82931;BME280;72705;53.346;10.248;2023-10-31T08:40:01;99313.38;;;10.42;94.39
82931;BME280;72705;53.346;10.248;2023-10-31T08:42:28;99306.69;;;10.38;94.09
82931;BME280;72705;53.346;10.248;2023-10-31T08:44:54;99305.75;;;10.25;95.46
82931;BME280;72705;53.346;10.248;2023-10-31T08:47:20;99302.25;;;10.24;94.93
82931;BME280;72705;53.346;10.248;2023-10-31T08:49:45;99311.56;;;10.22;95.27
82931;BME280;72705;53.346;10.248;2023-10-31T08:52:12;99313.91;;;10.10;95.98
82931;BME280;72705;53.346;10.248;2023-10-31T08:54:37;99326.78;;;10.14;96.53
82931;BME280;72705;53.346;10.248;2023-10-31T08:57:03;99321.22;;;10.16;95.23
82931;BME280;72705;53.346;10.248;2023-10-31T08:59:28;99327.47;;;10.17;95.14
82931;BME280;72705;53.346;10.248;2023-10-31T09:01:54;99301.78;;;10.21;93.91
82931;BME280;72705;53.346;10.248;2023-10-31T09:04:20;99314.44;;;10.20;94.11
82931;BME280;72705;53.346;10.248;2023-10-31T09:06:46;99331.00;;;10.17;95.16
82931;BME280;72705;53.346;10.248;2023-10-31T09:09:12;99341.78;;;10.17;95.59
82931;BME280;72705;53.346;10.248;2023-10-31T09:11:38;99338.53;;;10.07;96.52
82931;BME280;72705;53.346;10.248;2023-10-31T09:14:04;99337.97;;;10.11;95.09
82931;BME280;72705;53.346;10.248;2023-10-31T09:16:29;99356.25;;;10.16;95.75
82931;BME280;72705;53.346;10.248;2023-10-31T09:18:55;99357.41;;;10.28;95.12
82931;BME280;72705;53.346;10.248;2023-10-31T09:21:20;99364.66;;;10.28;95.04
82931;BME280;72705;53.346;10.248;2023-10-31T09:23:45;99361.31;;;10.26;94.67
82931;BME280;72705;53.346;10.248;2023-10-31T09:26:11;99363.22;;;10.32;95.00
82931;BME280;72705;53.346;10.248;2023-10-31T09:28:36;99369.84;;;10.29;93.88
82931;BME280;72705;53.346;10.248;2023-10-31T09:31:05;99368.78;;;10.24;94.05
82931;BME280;72705;53.346;10.248;2023-10-31T09:33:33;99384.59;;;10.33;94.11
82931;BME280;72705;53.346;10.248;2023-10-31T09:35:58;99385.38;;;10.27;93.85
82931;BME280;72705;53.346;10.248;2023-10-31T09:38:23;99396.34;;;10.26;94.53
82931;BME280;72705;53.346;10.248;2023-10-31T09:40:49;99412.06;;;10.22;94.69
82931;BME280;72705;53.346;10.248;2023-10-31T09:43:16;99404.81;;;10.23;94.53
82931;BME280;72705;53.346;10.248;2023-10-31T09:45:41;99421.44;;;10.26;94.24
82931;BME280;72705;53.346;10.248;2023-10-31T09:48:07;99412.97;;;10.29;93.45
82931;BME280;72705;53.346;10.248;2023-10-31T09:50:43;99435.66;;;10.41;92.72
82931;BME280;72705;53.346;10.248;2023-10-31T09:53:14;99449.97;;;10.42;93.44
82931;BME280;72705;53.346;10.248;2023-10-31T09:55:46;99455.81;;;10.45;92.90
82931;BME280;72705;53.346;10.248;2023-10-31T09:58:14;99470.72;;;10.41;93.38
82931;BME280;72705;53.346;10.248;2023-10-31T10:00:43;99487.84;;;10.34;93.14
82931;BME280;72705;53.346;10.248;2023-10-31T10:03:14;99496.34;;;10.37;93.68
82931;BME280;72705;53.346;10.248;2023-10-31T10:05:40;99507.97;;;10.38;94.32
82931;BME280;72705;53.346;10.248;2023-10-31T10:08:09;99511.72;;;10.37;94.14
82931;BME280;72705;53.346;10.248;2023-10-31T10:10:35;99524.72;;;10.33;93.95
82931;BME280;72705;53.346;10.248;2023-10-31T10:13:02;99520.75;;;10.14;94.76
82931;BME280;72705;53.346;10.248;2023-10-31T10:15:28;99537.75;;;10.15;95.02
82931;BME280;72705;53.346;10.248;2023-10-31T10:17:54;99566.38;;;10.16;96.56
82931;BME280;72705;53.346;10.248;2023-10-31T10:20:27;99574.84;;;10.28;94.45
82931;BME280;72705;53.346;10.248;2023-10-31T10:33:17;99605.75;;;10.68;92.85
82931;BME280;72705;53.346;10.248;2023-10-31T10:35:43;99603.94;;;10.75;92.68
82931;BME280;72705;53.346;10.248;2023-10-31T11:02:22;99678.78;;;10.87;92.16
82931;BME280;72705;53.346;10.248;2023-10-31T11:04:56;99680.00;;;10.85;91.41
82931;BME280;72705;53.346;10.248;2023-10-31T11:07:22;99696.44;;;10.90;92.30
82931;BME280;72705;53.346;10.248;2023-10-31T11:09:49;99712.22;;;10.93;92.66
82931;BME280;72705;53.346;10.248;2023-10-31T11:12:15;99693.75;;;10.90;91.34
82931;BME280;72705;53.346;10.248;2023-10-31T11:14:41;99711.97;;;10.88;90.36
82931;BME280;72705;53.346;10.248;2023-10-31T11:17:18;99707.16;;;10.83;92.29
82931;BME280;72705;53.346;10.248;2023-10-31T11:19:47;99711.63;;;10.76;93.47
82931;BME280;72705;53.346;10.248;2023-10-31T11:22:13;99737.50;;;10.71;93.48
82931;BME280;72705;53.346;10.248;2023-10-31T11:24:42;99726.34;;;10.74;94.03
82931;BME280;72705;53.346;10.248;2023-10-31T11:27:24;99741.56;;;10.81;93.51
82931;BME280;72705;53.346;10.248;2023-10-31T11:30:33;99754.94;;;11.04;93.19
82931;BME280;72705;53.346;10.248;2023-10-31T11:33:40;99764.50;;;11.07;92.01
82931;BME280;72705;53.346;10.248;2023-10-31T11:42:40;99782.94;;;11.24;91.10
82931;BME280;72705;53.346;10.248;2023-10-31T11:45:09;99760.84;;;11.14;91.80
82931;BME280;72705;53.346;10.248;2023-10-31T11:47:53;99792.22;;;11.15;89.64
82931;BME280;72705;53.346;10.248;2023-10-31T11:50:19;99790.44;;;11.22;90.35
82931;BME280;72705;53.346;10.248;2023-10-31T11:53:08;99800.13;;;11.02;89.64
82931;BME280;72705;53.346;10.248;2023-10-31T11:55:46;99806.22;;;10.89;89.37
82931;BME280;72705;53.346;10.248;2023-10-31T11:58:12;99809.09;;;10.88;88.87
82931;BME280;72705;53.346;10.248;2023-10-31T12:00:56;99812.78;;;10.87;89.25
82931;BME280;72705;53.346;10.248;2023-10-31T12:03:25;99821.72;;;10.87;89.27
82931;BME280;72705;53.346;10.248;2023-10-31T12:05:56;99832.44;;;10.81;89.60
82931;BME280;72705;53.346;10.248;2023-10-31T12:49:46;99859.78;;;10.48;90.93
82931;BME280;72705;53.346;10.248;2023-10-31T12:52:11;99850.75;;;10.41;88.93
82931;BME280;72705;53.346;10.248;2023-10-31T12:54:38;99883.47;;;10.68;89.49
82931;BME280;72705;53.346;10.248;2023-10-31T12:57:07;99865.81;;;10.50;89.69
82931;BME280;72705;53.346;10.248;2023-10-31T12:59:34;99879.88;;;10.61;89.29
82931;BME280;72705;53.346;10.248;2023-10-31T13:02:01;99903.97;;;10.77;88.69
82931;BME280;72705;53.346;10.248;2023-10-31T13:04:29;99899.22;;;10.79;88.96
82931;BME280;72705;53.346;10.248;2023-10-31T13:07:02;99897.09;;;10.89;88.74
82931;BME280;72705;53.346;10.248;2023-10-31T13:09:32;99908.88;;;10.88;88.13
82931;BME280;72705;53.346;10.248;2023-10-31T13:12:00;99876.53;;;10.73;88.41
82931;BME280;72705;53.346;10.248;2023-10-31T13:14:26;99842.13;;;10.61;88.66
82931;BME280;72705;53.346;10.248;2023-10-31T13:16:51;99895.03;;;10.76;88.00
82931;BME280;72705;53.346;10.248;2023-10-31T13:19:23;99918.00;;;10.87;87.56
82931;BME280;72705;53.346;10.248;2023-10-31T13:21:48;99902.66;;;10.73;88.68
82931;BME280;72705;53.346;10.248;2023-10-31T13:24:14;99909.16;;;10.64;89.01
82931;BME280;72705;53.346;10.248;2023-10-31T13:26:39;99929.69;;;10.65;88.85
82931;BME280;72705;53.346;10.248;2023-10-31T13:29:06;99897.19;;;10.43;89.96
82931;BME280;72705;53.346;10.248;2023-10-31T13:31:31;99872.66;;;10.38;90.23
82931;BME280;72705;53.346;10.248;2023-10-31T13:33:57;99911.19;;;10.62;90.41
82931;BME280;72705;53.346;10.248;2023-10-31T13:36:23;99892.91;;;10.34;91.38
82931;BME280;72705;53.346;10.248;2023-10-31T13:38:49;99925.94;;;10.51;91.72
82931;BME280;72705;53.346;10.248;2023-10-31T13:41:15;99917.00;;;10.36;91.09
82931;BME280;72705;53.346;10.248;2023-10-31T13:43:40;99918.91;;;10.27;92.34
82931;BME280;72705;53.346;10.248;2023-10-31T13:46:06;99933.75;;;10.46;92.93
82931;BME280;72705;53.346;10.248;2023-10-31T13:48:31;99959.31;;;10.50;93.16
82931;BME280;72705;53.346;10.248;2023-10-31T13:50:57;99959.81;;;10.53;92.89
82931;BME280;72705;53.346;10.248;2023-10-31T13:53:22;99948.84;;;10.55;91.99
82931;BME280;72705;53.346;10.248;2023-10-31T13:55:47;99936.34;;;10.39;93.58
82931;BME280;72705;53.346;10.248;2023-10-31T13:58:14;99956.81;;;10.48;93.21
82931;BME280;72705;53.346;10.248;2023-10-31T14:00:39;99956.28;;;10.68;92.88
82931;BME280;72705;53.346;10.248;2023-10-31T14:03:04;99983.34;;;10.60;93.38